Time;durP1;ratioP1;P1;durP2;ratioP2;P2;SDS_P1;SDS_P2;PMS_P1;PMS_P2;Temp;Humidity;BMP_temperature;BMP_pressure;BME280_temperature;BME280_humidity;BME280_pressure;Samples;Min_cycle;Max_cycle;Signal;HPM_P1;HPM_P2
2024/01/12 00:01:45;;;;;;;106.50;43.10;;;-0.40;99.90;;;;;;5059558;28;20113;-72
2024/01/12 00:04:11;;;;;;;106.72;42.17;;;-0.40;99.90;;;;;;5075743;28;20040;-72
2024/01/12 00:06:37;;;;;;;102.07;41.35;;;-0.40;99.90;;;;;;5075287;28;20048;-72
2024/01/12 00:09:04;;;;;;;94.57;40.83;;;-0.20;99.90;;;;;;5042394;28;20126;-73
2024/01/12 00:11:30;;;;;;;101.47;42.13;;;-0.40;99.90;;;;;;5076114;28;20036;-72
2024/01/12 00:13:56;;;;;;;101.13;42.83;;;-0.40;99.90;;;;;;5075507;28;20051;-72
2024/01/12 00:16:22;;;;;;;95.35;42.90;;;-0.40;99.90;;;;;;5075816;28;20051;-72
2024/01/12 00:18:47;;;;;;;106.15;43.22;;;-0.40;99.90;;;;;;5059238;28;20480;-73
2024/01/12 00:21:14;;;;;;;101.80;43.28;;;-0.40;99.90;;;;;;5075518;28;20036;-73
2024/01/12 00:23:40;;;;;;;92.88;40.20;;;-0.10;99.90;;;;;;5059211;28;20547;-72
2024/01/12 00:26:05;;;;;;;86.88;39.45;;;-0.30;99.90;;;;;;5058797;28;20170;-72
2024/01/12 00:28:32;;;;;;;88.68;41.20;;;-0.40;99.90;;;;;;5058709;28;20480;-72
2024/01/12 00:30:57;;;;;;;98.75;41.90;;;-0.20;99.90;;;;;;5075717;28;20055;-73
2024/01/12 00:33:23;;;;;;;95.63;41.33;;;-0.30;99.90;;;;;;5075763;28;20040;-72
2024/01/12 00:35:49;;;;;;;85.78;39.03;;;-0.30;99.90;;;;;;5058800;28;20040;-72
2024/01/12 00:38:15;;;;;;;91.05;42.00;;;-0.20;99.90;;;;;;5075512;28;20040;-72
2024/01/12 00:40:41;;;;;;;88.13;40.08;;;-0.30;99.90;;;;;;5075327;28;20127;-72
2024/01/12 00:43:07;;;;;;;80.85;37.88;;;-0.30;99.90;;;;;;5058599;28;20132;-72
2024/01/12 00:45:33;;;;;;;80.22;39.05;;;-0.30;99.90;;;;;;5075403;28;20079;-73
2024/01/12 00:48:00;;;;;;;82.55;39.25;;;-0.20;99.90;;;;;;5074963;28;20040;-72
2024/01/12 00:50:25;;;;;;;91.95;40.22;;;-0.20;99.90;;;;;;5075081;28;20040;-73
2024/01/12 00:52:51;;;;;;;86.30;38.72;;;-0.20;99.90;;;;;;5075010;28;20043;-75
2024/01/12 00:55:18;;;;;;;82.57;38.75;;;-0.20;99.90;;;;;;5075028;28;20130;-73
2024/01/12 00:57:43;;;;;;;91.47;39.08;;;-0.20;99.90;;;;;;5058208;28;20039;-73
2024/01/12 01:00:10;;;;;;;81.20;37.97;;;-0.20;99.90;;;;;;5074792;28;20050;-72
2024/01/12 01:02:35;;;;;;;73.13;35.80;;;-0.10;99.90;;;;;;5091528;28;20048;-72
2024/01/12 01:05:02;;;;;;;83.30;36.50;;;-0.10;99.90;;;;;;5058115;28;20065;-72
2024/01/12 01:07:28;;;;;;;74.63;36.42;;;-0.10;99.90;;;;;;5041764;28;20097;-73
2024/01/12 01:09:54;;;;;;;74.25;35.78;;;0.00;99.90;;;;;;5074718;28;20043;-72
2024/01/12 01:12:20;;;;;;;76.32;35.58;;;0.00;99.90;;;;;;5058337;28;20051;-72
2024/01/12 01:14:46;;;;;;;72.45;33.08;;;0.00;99.90;;;;;;5075012;28;20471;-71
2024/01/12 01:17:12;;;;;;;72.32;32.67;;;0.00;99.90;;;;;;5074681;28;20044;-73
2024/01/12 01:19:38;;;;;;;71.97;33.08;;;0.00;99.90;;;;;;5074536;28;20145;-72
2024/01/12 01:22:04;;;;;;;77.45;34.05;;;0.00;99.90;;;;;;5041735;28;20048;-73
2024/01/12 01:24:31;;;;;;;66.50;32.38;;;0.10;99.90;;;;;;5057797;28;20040;-72
2024/01/12 01:26:57;;;;;;;77.15;34.40;;;0.10;99.90;;;;;;5057945;28;20036;-73
2024/01/12 01:29:23;;;;;;;73.63;34.65;;;0.10;99.90;;;;;;5074956;28;20078;-73
2024/01/12 01:31:49;;;;;;;72.05;32.58;;;0.10;99.90;;;;;;5074591;28;20067;-72
2024/01/12 01:34:15;;;;;;;78.28;34.20;;;0.10;99.90;;;;;;5074508;28;20127;-72
2024/01/12 01:36:41;;;;;;;68.50;31.70;;;0.10;99.90;;;;;;5074521;28;20044;-72
2024/01/12 01:39:07;;;;;;;74.18;32.80;;;0.20;99.90;;;;;;5041616;28;20082;-73
2024/01/12 01:41:33;;;;;;;72.43;33.53;;;0.10;99.90;;;;;;5074718;28;20040;-72
2024/01/12 01:43:59;;;;;;;69.60;29.33;;;0.20;99.90;;;;;;5074108;28;20048;-72
2024/01/12 01:46:26;;;;;;;70.80;31.05;;;0.20;99.90;;;;;;5057772;28;20099;-73
2024/01/12 01:48:52;;;;;;;67.93;31.38;;;0.30;99.90;;;;;;5074332;28;20043;-72
2024/01/12 01:51:18;;;;;;;68.05;30.48;;;0.30;99.90;;;;;;5057702;28;20044;-69
2024/01/12 01:53:45;;;;;;;70.78;31.20;;;0.30;99.90;;;;;;5041213;28;20036;-69
2024/01/12 01:56:11;;;;;;;76.93;32.13;;;0.40;99.90;;;;;;5057765;28;20081;-69
2024/01/12 01:58:37;;;;;;;78.45;31.95;;;0.40;99.90;;;;;;5074479;28;20408;-69
2024/01/12 02:01:04;;;;;;;74.22;31.92;;;0.40;99.90;;;;;;5040950;28;20043;-69
2024/01/12 02:03:31;;;;;;;70.38;29.73;;;0.40;99.90;;;;;;5074712;28;20070;-69
2024/01/12 02:05:57;;;;;;;65.97;28.58;;;0.40;99.90;;;;;;5074117;28;20127;-69
2024/01/12 02:08:27;;;;;;;65.28;28.52;;;0.50;99.90;;;;;;5074121;28;20036;-69
2024/01/12 02:10:53;;;;;;;74.15;30.33;;;0.60;99.90;;;;;;5074076;28;20040;-69
2024/01/12 02:13:19;;;;;;;67.53;28.77;;;0.60;99.90;;;;;;5073969;28;20049;-69
2024/01/12 02:15:45;;;;;;;58.47;27.65;;;0.80;99.90;;;;;;5074436;28;20538;-69
2024/01/12 02:18:11;;;;;;;69.18;27.45;;;0.90;99.90;;;;;;5074412;28;20048;-69
2024/01/12 02:20:38;;;;;;;64.65;27.48;;;0.60;99.90;;;;;;5074001;28;20043;-69
2024/01/12 02:23:04;;;;;;;66.38;28.98;;;0.70;99.90;;;;;;5074270;28;20122;-69
2024/01/12 02:25:29;;;;;;;58.28;26.65;;;0.60;99.90;;;;;;5057434;28;20083;-69
2024/01/12 02:27:55;;;;;;;61.92;26.55;;;0.70;99.90;;;;;;5074430;28;20075;-69
2024/01/12 02:30:22;;;;;;;65.68;28.02;;;0.70;99.90;;;;;;5077102;28;20096;-69
2024/01/12 02:32:47;;;;;;;58.63;26.73;;;0.70;99.90;;;;;;5077697;28;20096;-69
2024/01/12 02:35:13;;;;;;;63.63;25.95;;;0.70;99.90;;;;;;5061185;28;20036;-69
2024/01/12 02:37:39;;;;;;;59.33;26.73;;;0.70;99.90;;;;;;5060937;28;20044;-69
2024/01/12 02:40:06;;;;;;;50.92;24.20;;;0.70;99.90;;;;;;5077559;28;20177;-70
2024/01/12 02:42:32;;;;;;;50.30;24.25;;;0.80;99.90;;;;;;5061156;28;20132;-69
2024/01/12 02:44:58;;;;;;;51.30;24.02;;;0.80;99.90;;;;;;5077471;28;20404;-69
2024/01/12 02:47:23;;;;;;;53.38;24.13;;;0.90;99.90;;;;;;5077638;28;20040;-69
2024/01/12 02:49:49;;;;;;;44.13;23.13;;;0.90;99.90;;;;;;5077612;28;20040;-69
2024/01/12 02:52:15;;;;;;;46.38;22.48;;;0.90;99.90;;;;;;5077406;28;20544;-70
2024/01/12 02:54:41;;;;;;;47.92;22.92;;;1.00;99.90;;;;;;5077275;28;20146;-69
2024/01/12 02:57:07;;;;;;;44.78;23.20;;;1.00;99.90;;;;;;5060811;28;20500;-69
2024/01/12 02:59:32;;;;;;;43.90;23.23;;;1.10;99.90;;;;;;5060674;28;20036;-69
2024/01/12 03:01:58;;;;;;;48.00;22.95;;;1.00;99.90;;;;;;5060435;28;20039;-69
2024/01/12 03:04:24;;;;;;;45.00;22.30;;;1.00;99.90;;;;;;5060217;28;20044;-68
2024/01/12 03:06:50;;;;;;;47.17;22.77;;;1.00;99.90;;;;;;5077082;28;20524;-68
2024/01/12 03:09:15;;;;;;;45.85;23.17;;;1.00;99.90;;;;;;5060467;28;20044;-69
2024/01/12 03:11:41;;;;;;;43.55;21.83;;;1.00;99.90;;;;;;5077043;28;20492;-68
2024/01/12 03:14:08;;;;;;;42.45;21.65;;;1.00;99.90;;;;;;5060224;28;20080;-68
2024/01/12 03:16:34;;;;;;;44.05;22.60;;;1.00;99.90;;;;;;5077186;28;20500;-68
2024/01/12 03:18:59;;;;;;;40.72;22.80;;;1.00;99.90;;;;;;5076818;28;20086;-68
2024/01/12 03:21:25;;;;;;;40.03;21.33;;;1.10;99.90;;;;;;5076906;28;20060;-69
2024/01/12 03:23:51;;;;;;;38.25;20.70;;;1.10;99.90;;;;;;5059975;28;20513;-68
2024/01/12 03:26:17;;;;;;;43.67;19.23;;;1.20;99.90;;;;;;5077067;28;20047;-68
2024/01/12 03:28:42;;;;;;;42.53;20.13;;;1.10;99.90;;;;;;5062465;28;20561;-68
2024/01/12 03:31:08;;;;;;;34.83;18.58;;;1.10;99.90;;;;;;5062861;28;20484;-69
2024/01/12 03:33:34;;;;;;;40.65;20.35;;;1.10;99.90;;;;;;5062690;28;20039;-69
2024/01/12 03:36:00;;;;;;;36.67;18.75;;;1.20;99.90;;;;;;5062490;28;20058;-68
2024/01/12 03:38:25;;;;;;;29.90;17.48;;;1.20;99.90;;;;;;5060494;28;20043;-68
2024/01/12 03:40:51;;;;;;;35.38;18.45;;;1.20;99.90;;;;;;5075412;28;20040;-69
2024/01/12 03:43:17;;;;;;;40.67;19.55;;;1.10;99.90;;;;;;5059771;28;20522;-69
2024/01/12 03:45:43;;;;;;;34.40;18.15;;;1.10;99.90;;;;;;5059743;28;20032;-69
2024/01/12 03:48:08;;;;;;;31.92;17.08;;;1.10;99.90;;;;;;5059779;28;20119;-69
2024/01/12 03:50:34;;;;;;;42.67;19.23;;;1.10;99.90;;;;;;5059689;28;20392;-69
2024/01/12 03:53:00;;;;;;;37.33;18.33;;;1.10;99.90;;;;;;5059715;28;20469;-68
2024/01/12 03:55:26;;;;;;;36.58;17.25;;;1.10;99.90;;;;;;5076053;28;20592;-68
2024/01/12 03:57:52;;;;;;;42.63;20.17;;;1.10;99.90;;;;;;5059471;28;20484;-68
2024/01/12 04:00:17;;;;;;;37.00;17.92;;;1.10;99.90;;;;;;5076238;28;20123;-68
2024/01/12 04:02:43;;;;;;;33.00;18.05;;;1.10;99.90;;;;;;5059447;28;20036;-69
2024/01/12 04:05:09;;;;;;;42.13;18.75;;;1.10;99.90;;;;;;5075874;28;20048;-69
2024/01/12 04:07:35;;;;;;;34.83;18.55;;;1.20;99.90;;;;;;5076074;28;20072;-69
2024/01/12 04:10:01;;;;;;;40.22;19.98;;;1.10;99.90;;;;;;5076087;28;20105;-72
2024/01/12 04:12:26;;;;;;;36.97;18.20;;;1.10;99.90;;;;;;5075435;28;20123;-72
2024/01/12 04:14:52;;;;;;;33.90;17.15;;;1.10;99.90;;;;;;5076010;28;20055;-73
2024/01/12 04:17:18;;;;;;;37.47;19.70;;;1.10;99.90;;;;;;5076209;28;20040;-72
2024/01/12 04:19:44;;;;;;;33.67;17.80;;;1.00;99.90;;;;;;5075511;28;20040;-72
2024/01/12 04:22:10;;;;;;;38.58;18.60;;;1.00;99.90;;;;;;5058933;28;20093;-73
2024/01/12 04:24:35;;;;;;;36.67;17.88;;;1.10;99.90;;;;;;5075382;28;20097;-72
2024/01/12 04:27:01;;;;;;;38.58;19.77;;;1.10;99.90;;;;;;5058977;28;20075;-72
2024/01/12 04:29:27;;;;;;;42.33;19.40;;;1.10;99.90;;;;;;5075333;28;20036;-72
2024/01/12 04:31:53;;;;;;;36.28;19.13;;;1.10;99.90;;;;;;5075307;28;20074;-72
2024/01/12 04:34:18;;;;;;;39.05;18.67;;;1.00;99.90;;;;;;5075422;28;20074;-72
2024/01/12 04:36:44;;;;;;;38.97;19.17;;;1.10;99.90;;;;;;5075672;28;20035;-72
2024/01/12 04:39:10;;;;;;;39.35;19.20;;;1.00;99.90;;;;;;5075097;28;20069;-72
2024/01/12 04:41:36;;;;;;;35.53;17.95;;;1.00;99.90;;;;;;5058611;28;20169;-73
2024/01/12 04:44:01;;;;;;;38.53;19.38;;;1.00;99.90;;;;;;5058614;28;20036;-73
2024/01/12 04:46:28;;;;;;;34.42;18.13;;;0.90;99.90;;;;;;5075306;28;20047;-72
2024/01/12 04:48:54;;;;;;;37.50;17.92;;;0.90;99.90;;;;;;5074819;28;20044;-73
2024/01/12 04:51:20;;;;;;;35.85;17.70;;;0.80;99.90;;;;;;5075013;28;20048;-72
2024/01/12 04:53:45;;;;;;;29.92;16.33;;;0.80;99.90;;;;;;5074929;28;20491;-73
2024/01/12 04:56:11;;;;;;;35.72;18.13;;;0.80;99.90;;;;;;5075123;28;20125;-72
2024/01/12 04:58:38;;;;;;;34.33;16.77;;;0.80;99.90;;;;;;5058267;28;20407;-73
2024/01/12 05:01:04;;;;;;;32.80;16.95;;;0.80;99.90;;;;;;5058825;28;20522;-73
2024/01/12 05:03:30;;;;;;;31.15;16.55;;;0.80;99.90;;;;;;5058252;28;20043;-72
2024/01/12 05:05:55;;;;;;;39.28;17.33;;;0.80;99.90;;;;;;5058158;28;20415;-72
2024/01/12 05:08:21;;;;;;;33.03;17.25;;;0.80;99.90;;;;;;5058217;28;20127;-73
2024/01/12 05:10:47;;;;;;;32.45;16.98;;;0.80;99.90;;;;;;5058037;28;20036;-73
2024/01/12 05:13:13;;;;;;;31.33;16.63;;;0.80;99.90;;;;;;5074704;28;20086;-72
2024/01/12 05:15:40;;;;;;;38.65;17.10;;;0.80;99.90;;;;;;5075281;28;20451;-72
2024/01/12 05:18:05;;;;;;;34.03;17.35;;;0.80;99.90;;;;;;5058474;28;20044;-73
2024/01/12 05:20:31;;;;;;;33.03;17.17;;;0.80;99.90;;;;;;5058158;28;20047;-72
2024/01/12 05:22:57;;;;;;;36.30;16.30;;;0.80;99.90;;;;;;5058031;28;20032;-73
2024/01/12 05:25:23;;;;;;;33.72;16.73;;;0.90;99.90;;;;;;5074573;28;20507;-73
2024/01/12 05:27:48;;;;;;;34.63;17.92;;;0.90;99.90;;;;;;5074526;28;20551;-72
2024/01/12 05:30:14;;;;;;;34.47;16.67;;;0.90;99.90;;;;;;5058126;28;20105;-72
2024/01/12 05:32:40;;;;;;;35.00;16.48;;;0.90;99.90;;;;;;5074145;28;20066;-73
2024/01/12 05:35:06;;;;;;;32.85;17.10;;;0.90;99.90;;;;;;5057922;28;20036;-72
2024/01/12 05:37:32;;;;;;;34.33;16.73;;;0.90;99.90;;;;;;5074359;28;20507;-73
2024/01/12 05:39:58;;;;;;;29.83;15.25;;;0.90;99.90;;;;;;5074613;28;20044;-73
2024/01/12 05:42:23;;;;;;;31.48;17.00;;;0.90;99.90;;;;;;5074513;28;20556;-73
2024/01/12 05:44:49;;;;;;;36.50;17.75;;;0.90;99.90;;;;;;5041155;28;20048;-72
2024/01/12 05:47:15;;;;;;;34.60;17.55;;;0.90;99.90;;;;;;5057762;28;20036;-73
2024/01/12 05:49:41;;;;;;;35.03;16.38;;;1.00;99.90;;;;;;5057617;28;20036;-72
2024/01/12 05:52:07;;;;;;;26.05;14.50;;;0.90;99.90;;;;;;5058086;28;20401;-72
2024/01/12 05:54:32;;;;;;;29.63;14.10;;;1.00;99.90;;;;;;5057620;28;20075;-72
2024/01/12 05:56:58;;;;;;;34.97;15.27;;;1.00;99.90;;;;;;5074410;28;20122;-73
2024/01/12 06:00:05;;;;;;;33.45;15.63;;;1.20;99.90;;;;;;5057587;28;20044;-72
2024/01/12 06:02:31;;;;;;;35.88;15.48;;;1.10;99.90;;;;;;5057707;28;20039;-73
2024/01/12 06:04:56;;;;;;;29.65;15.98;;;1.10;99.90;;;;;;5060046;28;20051;-73
2024/01/12 06:07:22;;;;;;;33.65;14.90;;;1.10;99.90;;;;;;5061584;28;20039;-72
2024/01/12 06:09:48;;;;;;;35.13;15.05;;;1.10;99.90;;;;;;5078051;28;20047;-72
2024/01/12 06:12:13;;;;;;;30.17;15.07;;;1.10;99.90;;;;;;5061599;28;20036;-73
2024/01/12 06:14:39;;;;;;;33.47;14.15;;;1.10;99.90;;;;;;5077734;28;20056;-72
2024/01/12 06:17:05;;;;;;;42.35;16.30;;;1.10;99.90;;;;;;5077995;28;20043;-72
2024/01/12 06:19:31;;;;;;;30.45;13.95;;;1.10;99.90;;;;;;5077717;28;20039;-73
2024/01/12 06:21:56;;;;;;;37.38;15.80;;;1.10;99.90;;;;;;5061502;28;20499;-73
2024/01/12 06:24:22;;;;;;;35.47;14.30;;;1.30;99.90;;;;;;5061136;28;20035;-73
2024/01/12 06:26:48;;;;;;;41.97;17.30;;;1.10;99.90;;;;;;5061332;28;20040;-72
2024/01/12 06:29:14;;;;;;;30.35;14.95;;;1.10;99.90;;;;;;5061514;28;20036;-69
2024/01/12 06:31:39;;;;;;;38.30;15.65;;;1.10;99.90;;;;;;5061021;28;20040;-68
2024/01/12 06:34:05;;;;;;;35.55;15.55;;;1.10;99.90;;;;;;5061101;28;20119;-69
2024/01/12 06:36:31;;;;;;;37.60;15.32;;;1.10;99.90;;;;;;5060486;28;20058;-69
2024/01/12 06:38:57;;;;;;;33.40;14.88;;;1.00;99.90;;;;;;5077603;28;20037;-68
2024/01/12 06:41:23;;;;;;;30.67;14.40;;;1.10;99.90;;;;;;5044828;28;20044;-68
2024/01/12 06:43:48;;;;;;;36.42;15.50;;;1.00;99.90;;;;;;5077406;28;20050;-68
2024/01/12 06:46:14;;;;;;;38.35;15.05;;;1.10;99.90;;;;;;5077291;28;20094;-69
2024/01/12 06:48:40;;;;;;;33.17;14.68;;;1.00;99.90;;;;;;5077428;28;20043;-68
2024/01/12 06:51:06;;;;;;;49.00;16.52;;;1.00;99.90;;;;;;5060712;28;20032;-68
2024/01/12 06:53:32;;;;;;;50.95;16.63;;;1.10;99.90;;;;;;5077390;28;20102;-68
2024/01/12 06:55:57;;;;;;;37.85;14.85;;;1.10;99.90;;;;;;5077295;28;20488;-69
2024/01/12 06:58:23;;;;;;;47.13;16.48;;;1.10;99.90;;;;;;5077291;28;20040;-69
2024/01/12 07:00:49;;;;;;;44.28;16.42;;;1.20;99.90;;;;;;5077032;28;20050;-68
2024/01/12 07:03:14;;;;;;;44.08;15.95;;;1.10;99.90;;;;;;5060534;28;20040;-68
2024/01/12 07:05:40;;;;;;;50.00;17.52;;;1.10;99.90;;;;;;5076948;28;20123;-68
2024/01/12 07:08:07;;;;;;;52.00;18.67;;;1.10;99.90;;;;;;5077472;28;20396;-68
2024/01/12 07:10:33;;;;;;;56.45;17.33;;;1.10;99.90;;;;;;5060052;28;20044;-68
2024/01/12 07:12:58;;;;;;;73.32;18.80;;;1.30;99.90;;;;;;5076859;28;20162;-68
2024/01/12 07:15:24;;;;;;;51.40;17.08;;;1.20;99.90;;;;;;5076076;28;20046;-68
2024/01/12 07:17:50;;;;;;;55.58;18.10;;;1.20;99.90;;;;;;5060363;28;20048;-68
2024/01/12 07:20:16;;;;;;;69.38;19.63;;;1.20;99.90;;;;;;5043601;28;20047;-68
2024/01/12 07:22:43;;;;;;;68.07;18.70;;;1.20;99.90;;;;;;5076914;28;20036;-68
2024/01/12 07:25:09;;;;;;;121.10;21.27;;;1.20;99.90;;;;;;5093753;28;20093;-68
2024/01/12 07:27:35;;;;;;;67.70;18.45;;;1.30;99.90;;;;;;5076811;28;20032;-68
2024/01/12 07:30:01;;;;;;;68.38;18.95;;;1.30;99.90;;;;;;5076682;28;20040;-68
2024/01/12 07:32:26;;;;;;;78.13;18.90;;;1.30;99.90;;;;;;5060038;28;20535;-68
2024/01/12 07:34:52;;;;;;;72.65;19.45;;;1.40;99.90;;;;;;5060174;28;20042;-68
2024/01/12 07:37:18;;;;;;;59.67;17.98;;;1.30;99.90;;;;;;5059887;28;20036;-68
2024/01/12 07:39:43;;;;;;;61.65;17.83;;;1.30;99.90;;;;;;5076489;28;20542;-73
2024/01/12 07:42:09;;;;;;;56.03;17.35;;;1.30;99.90;;;;;;5076328;28;20088;-73
2024/01/12 07:44:37;;;;;;;57.80;17.30;;;1.30;99.90;;;;;;5076275;28;20089;-73
2024/01/12 07:47:03;;;;;;;52.35;17.23;;;1.30;99.90;;;;;;5076698;28;20392;-74
2024/01/12 07:49:28;;;;;;;45.58;16.75;;;1.30;99.90;;;;;;5059529;28;20032;-73
2024/01/12 07:51:54;;;;;;;47.78;16.05;;;1.30;99.90;;;;;;5076065;28;20040;-74
2024/01/12 07:54:20;;;;;;;45.30;16.27;;;1.30;99.90;;;;;;5059730;28;20036;-73
2024/01/12 07:56:46;;;;;;;39.22;16.17;;;1.30;99.90;;;;;;5075954;28;20036;-73
2024/01/12 07:59:12;;;;;;;41.65;16.17;;;1.30;99.90;;;;;;5059415;28;20480;-73
2024/01/12 08:01:40;;;;;;;35.03;14.02;;;1.40;99.90;;;;;;5059236;28;20038;-74
2024/01/12 08:04:06;;;;;;;39.75;15.65;;;1.40;99.90;;;;;;5075832;28;20044;-73
2024/01/12 08:06:32;;;;;;;32.25;14.75;;;1.60;99.90;;;;;;5059162;28;20040;-73
2024/01/12 08:08:58;;;;;;;34.50;15.25;;;1.40;99.90;;;;;;5076118;28;20381;-73
2024/01/12 08:11:24;;;;;;;34.60;15.40;;;1.40;99.90;;;;;;5075980;28;20032;-74
2024/01/12 08:13:49;;;;;;;36.25;15.52;;;1.40;99.90;;;;;;5075504;28;20447;-73
2024/01/12 08:16:15;;;;;;;32.65;14.80;;;1.40;99.90;;;;;;5059468;28;20400;-74
2024/01/12 08:18:41;;;;;;;35.75;14.82;;;1.40;99.90;;;;;;5075861;28;20044;-73
2024/01/12 08:21:08;;;;;;;34.28;15.20;;;1.40;99.90;;;;;;5059291;28;20076;-74
2024/01/12 08:23:33;;;;;;;38.05;15.27;;;1.50;99.90;;;;;;5059173;28;20047;-73
2024/01/12 08:25:59;;;;;;;36.38;15.45;;;1.40;99.90;;;;;;5075388;28;20048;-74
2024/01/12 08:28:25;;;;;;;37.22;15.55;;;1.40;99.90;;;;;;5058825;28;20374;-73
2024/01/12 08:30:51;;;;;;;33.83;14.93;;;1.40;99.90;;;;;;5042470;28;20035;-73
2024/01/12 08:33:17;;;;;;;29.55;13.57;;;1.50;99.90;;;;;;5075382;28;20088;-74
2024/01/12 08:35:43;;;;;;;33.20;14.45;;;1.50;99.90;;;;;;5075366;28;20043;-73
2024/01/12 08:38:08;;;;;;;32.33;15.48;;;1.50;99.90;;;;;;5075319;28;20104;-73
2024/01/12 08:40:34;;;;;;;32.58;15.20;;;1.60;99.90;;;;;;5075487;28;20522;-73
2024/01/12 08:43:01;;;;;;;36.55;15.30;;;1.60;99.90;;;;;;5075046;28;20048;-73
2024/01/12 08:45:27;;;;;;;35.38;15.85;;;1.60;99.90;;;;;;5075182;28;20099;-73
2024/01/12 08:47:53;;;;;;;31.48;14.50;;;1.60;99.90;;;;;;5075227;28;20522;-73
2024/01/12 08:50:18;;;;;;;33.45;14.65;;;1.60;99.90;;;;;;5075279;28;20512;-69
2024/01/12 08:52:44;;;;;;;32.00;14.07;;;1.60;99.90;;;;;;5058593;28;20036;-68
2024/01/12 08:55:10;;;;;;;34.85;14.65;;;1.60;99.90;;;;;;5058498;28;20047;-68
2024/01/12 08:57:36;;;;;;;31.48;14.85;;;1.70;99.90;;;;;;5058320;28;20044;-68
2024/01/12 09:00:06;;;;;;;33.08;14.15;;;1.60;99.90;;;;;;5058355;28;20051;-68
2024/01/12 09:02:32;;;;;;;29.90;13.52;;;1.70;99.90;;;;;;5058763;28;20123;-68
2024/01/12 09:04:58;;;;;;;34.60;14.95;;;1.70;99.90;;;;;;5074677;28;20119;-68
2024/01/12 09:07:24;;;;;;;30.05;14.48;;;1.70;99.90;;;;;;5058233;28;20463;-68
2024/01/12 09:09:50;;;;;;;31.77;13.63;;;1.70;99.90;;;;;;5075205;28;20559;-68
2024/01/12 09:12:15;;;;;;;37.42;15.13;;;1.70;99.90;;;;;;5058177;28;20036;-68
2024/01/12 09:14:41;;;;;;;29.88;14.68;;;1.70;99.90;;;;;;5074586;28;20052;-68
2024/01/12 09:17:07;;;;;;;32.78;14.45;;;1.70;99.90;;;;;;5074766;28;20069;-68
2024/01/12 09:19:33;;;;;;;34.10;14.18;;;1.70;99.90;;;;;;5074864;28;20488;-68
2024/01/12 09:21:58;;;;;;;35.25;14.68;;;1.80;99.90;;;;;;5058097;28;20542;-68
2024/01/12 09:24:24;;;;;;;32.92;14.25;;;1.80;99.90;;;;;;5074831;28;20369;-68
2024/01/12 09:26:50;;;;;;;34.28;14.15;;;1.80;99.90;;;;;;5058354;28;20342;-68
2024/01/12 09:29:15;;;;;;;37.10;14.07;;;1.80;99.90;;;;;;5058298;28;20070;-68
2024/01/12 09:31:41;;;;;;;36.80;14.85;;;1.80;99.90;;;;;;5057978;28;20043;-68
2024/01/12 09:34:07;;;;;;;35.65;14.35;;;1.80;99.90;;;;;;5057964;28;20044;-68
2024/01/12 09:36:33;;;;;;;32.50;14.43;;;1.80;99.90;;;;;;5058022;28;20169;-68
2024/01/12 09:38:59;;;;;;;33.40;14.38;;;1.90;99.90;;;;;;5058706;28;20294;-68
2024/01/12 09:41:38;;;;;;;32.55;14.82;;;1.90;99.90;;;;;;5078771;28;20044;-68
2024/01/12 09:44:06;;;;;;;32.38;15.13;;;1.90;99.90;;;;;;5078836;28;20043;-68
2024/01/12 09:46:41;;;;;;;30.95;14.00;;;2.00;99.90;;;;;;5078404;28;20051;-68
2024/01/12 09:49:08;;;;;;;33.13;14.55;;;2.00;99.90;;;;;;5078477;28;20127;-68
2024/01/12 09:51:33;;;;;;;33.33;14.20;;;2.00;99.90;;;;;;5062127;28;20035;-68
2024/01/12 09:53:59;;;;;;;30.85;13.77;;;2.10;99.90;;;;;;5078462;28;20044;-68
2024/01/12 09:56:26;;;;;;;32.33;13.30;;;2.10;99.90;;;;;;5078375;28;20087;-68
2024/01/12 09:58:52;;;;;;;31.48;13.73;;;2.10;99.90;;;;;;5078681;28;20496;-67
2024/01/12 10:01:18;;;;;;;28.75;13.57;;;2.10;99.90;;;;;;5062214;28;20558;-72
2024/01/12 10:03:46;;;;;;;29.52;13.73;;;2.20;99.90;;;;;;5078342;28;20048;-72
2024/01/12 10:06:12;;;;;;;28.35;13.23;;;2.20;99.90;;;;;;5078157;28;20130;-72
2024/01/12 10:08:40;;;;;;;30.25;13.68;;;2.20;99.90;;;;;;5095591;28;20539;-72
2024/01/12 10:11:05;;;;;;;29.52;14.27;;;2.20;99.90;;;;;;5078740;28;20062;-72
2024/01/12 10:13:32;;;;;;;29.90;14.50;;;2.20;99.90;;;;;;5078524;28;20135;-72
2024/01/12 10:15:57;;;;;;;29.23;14.88;;;2.20;99.90;;;;;;5062118;28;20054;-72
2024/01/12 10:18:23;;;;;;;29.48;14.32;;;2.30;99.90;;;;;;5079566;28;20189;-72
2024/01/12 10:20:50;;;;;;;29.55;14.95;;;2.30;99.90;;;;;;5079528;28;20504;-73
2024/01/12 10:23:20;;;;;;;29.40;13.30;;;2.30;99.90;;;;;;5101224;28;20105;-73
2024/01/12 10:25:59;;;;;;;27.60;13.25;;;2.30;99.90;;;;;;5084065;28;20040;-72
2024/01/12 10:28:29;;;;;;;26.75;12.27;;;2.30;99.90;;;;;;5100936;28;20020;-73
2024/01/12 10:30:55;;;;;;;27.42;11.68;;;2.30;99.90;;;;;;5071118;28;20123;-72
2024/01/12 10:33:22;;;;;;;24.65;11.05;;;2.30;99.90;;;;;;5078931;28;20488;-76
2024/01/12 10:36:03;;;;;;;25.17;11.35;;;2.40;99.90;;;;;;5061732;28;20040;-75
2024/01/12 10:38:30;;;;;;;27.17;11.52;;;2.40;99.90;;;;;;5078393;28;20036;-73
2024/01/12 10:40:59;;;;;;;29.13;11.38;;;2.50;99.90;;;;;;5061888;28;20048;-73
2024/01/12 10:43:28;;;;;;;25.48;12.30;;;2.50;99.90;;;;;;5078471;28;20190;-73
2024/01/12 10:45:58;;;;;;;22.42;11.18;;;2.60;99.90;;;;;;5077703;28;20048;-73
2024/01/12 10:48:27;;;;;;;24.25;11.45;;;2.60;99.90;;;;;;5077728;28;20044;-74
2024/01/12 10:50:58;;;;;;;23.77;10.13;;;2.60;99.90;;;;;;5077479;28;20040;-74
2024/01/12 10:53:35;;;;;;;26.45;10.32;;;2.70;99.90;;;;;;5078060;28;20174;-73
2024/01/12 10:56:01;;;;;;;27.45;9.98;;;2.70;99.90;;;;;;5077623;28;20396;-73
2024/01/12 10:58:28;;;;;;;23.67;9.38;;;2.70;99.90;;;;;;5077574;28;20047;-75
2024/01/12 11:00:55;;;;;;;24.77;9.32;;;2.80;99.90;;;;;;5077262;28;20039;-73
2024/01/12 11:03:21;;;;;;;25.88;8.45;;;2.80;99.90;;;;;;5077843;28;20036;-71
2024/01/12 11:05:51;;;;;;;27.33;8.85;;;2.80;99.90;;;;;;5077502;28;20047;-73
2024/01/12 11:08:20;;;;;;;25.83;8.73;;;2.90;99.90;;;;;;5077742;28;20063;-73
2024/01/12 11:10:50;;;;;;;18.17;7.55;;;2.90;99.90;;;;;;5060413;28;20032;-67
2024/01/12 11:13:17;;;;;;;23.98;7.55;;;3.00;99.90;;;;;;5076927;28;20132;-68
2024/01/12 11:15:44;;;;;;;21.60;7.40;;;3.00;99.90;;;;;;5060202;28;20043;-68
2024/01/12 11:18:10;;;;;;;21.80;7.05;;;3.20;99.90;;;;;;5076927;28;20040;-68
2024/01/12 11:20:38;;;;;;;22.95;7.35;;;3.20;99.90;;;;;;5076851;28;20101;-68
2024/01/12 11:23:04;;;;;;;24.48;7.57;;;3.30;99.90;;;;;;5076850;28;20039;-68
2024/01/12 11:25:30;;;;;;;18.92;6.53;;;3.30;99.90;;;;;;5043620;28;20040;-68
2024/01/12 11:27:56;;;;;;;23.60;6.25;;;3.40;99.90;;;;;;5059952;28;20047;-68
2024/01/12 11:30:24;;;;;;;19.60;6.82;;;3.50;99.90;;;;;;5060318;28;20122;-68
2024/01/12 11:33:06;;;;;;;22.05;6.60;;;3.50;99.90;;;;;;5076940;28;20093;-68
2024/01/12 11:35:32;;;;;;;19.40;6.07;;;3.60;99.90;;;;;;5093340;28;20043;-68
2024/01/12 11:38:05;;;;;;;20.38;6.53;;;3.60;99.90;;;;;;5059866;28;20059;-68
2024/01/12 11:40:31;;;;;;;19.17;6.18;;;3.60;99.90;;;;;;5076474;28;20052;-68
2024/01/12 11:42:59;;;;;;;22.58;6.10;;;3.60;99.90;;;;;;5076446;28;20048;-68
2024/01/12 11:45:25;;;;;;;18.38;6.20;;;3.70;99.90;;;;;;5093496;28;20063;-68
2024/01/12 11:47:51;;;;;;;19.55;5.25;;;3.70;99.90;;;;;;5060400;28;20388;-68
2024/01/12 11:50:18;;;;;;;22.23;5.78;;;3.70;99.90;;;;;;5076598;28;20065;-67
2024/01/12 11:52:56;;;;;;;20.98;5.70;;;3.80;99.90;;;;;;5076449;28;20392;-67
2024/01/12 11:55:23;;;;;;;18.15;5.60;;;3.80;99.90;;;;;;5093212;28;20048;-67
2024/01/12 11:57:51;;;;;;;22.95;5.70;;;3.90;99.90;;;;;;5076157;28;20056;-67
2024/01/12 12:00:17;;;;;;;19.27;5.18;;;3.90;99.90;;;;;;5059927;28;20424;-67
2024/01/12 12:02:43;;;;;;;18.02;5.32;;;3.90;99.90;;;;;;5075129;28;20093;-67
2024/01/12 12:05:09;;;;;;;17.92;4.88;;;3.90;99.90;;;;;;5059363;28;20048;-67
2024/01/12 12:07:37;;;;;;;25.45;5.30;;;4.00;99.90;;;;;;5075955;28;20036;-67
2024/01/12 12:10:03;;;;;;;21.55;5.43;;;4.00;99.90;;;;;;5075944;28;20088;-68
2024/01/12 12:12:29;;;;;;;19.13;5.15;;;4.00;99.90;;;;;;5076204;28;20040;-68
2024/01/12 12:15:06;;;;;;;19.90;5.32;;;4.10;99.90;;;;;;5058933;28;20048;-69
2024/01/12 12:17:37;;;;;;;22.98;5.15;;;4.10;99.90;;;;;;5075940;28;20036;-68
2024/01/12 12:20:11;;;;;;;18.25;4.82;;;4.10;99.90;;;;;;5075976;28;20075;-68
2024/01/12 12:22:41;;;;;;;25.67;5.18;;;4.10;99.90;;;;;;5059722;28;20496;-68
2024/01/12 12:25:09;;;;;;;23.60;4.82;;;4.10;99.90;;;;;;5075598;28;20060;-68
2024/01/12 12:27:39;;;;;;;19.65;4.93;;;4.10;99.90;;;;;;5075789;28;20044;-68
2024/01/12 12:30:10;;;;;;;25.80;5.03;;;4.10;99.90;;;;;;5059517;28;20040;-68
2024/01/12 12:32:38;;;;;;;18.13;4.40;;;4.20;99.90;;;;;;5075611;28;20039;-69
2024/01/12 12:35:18;;;;;;;20.23;4.50;;;4.10;99.90;;;;;;5075421;28;20039;-68